createdAt,value
2022-10-28T00:00:08.213Z,100747.3
2022-10-28T00:02:07.459Z,100747.23
2022-10-28T00:03:07.793Z,100744.97
2022-10-28T00:04:08.132Z,100748.06
2022-10-28T00:05:09.272Z,100747.14
2022-10-28T00:06:15.127Z,100749.11
2022-10-28T00:07:12.470Z,100752.83
2022-10-28T00:08:12.971Z,100748.91
2022-10-28T00:09:13.709Z,100750.73
2022-10-28T00:10:13.804Z,100748.28
2022-10-28T00:11:16.990Z,100749.7
2022-10-28T00:12:14.538Z,100753.11
2022-10-28T00:13:14.963Z,100748.63
2022-10-28T00:14:15.701Z,100746.88
2022-10-28T00:15:16.204Z,100750.36
2022-10-28T00:16:19.277Z,100745.01
2022-10-28T00:17:17.069Z,100746.73
2022-10-28T00:18:17.343Z,100749.98
2022-10-28T00:19:18.073Z,100743.8
2022-10-28T00:20:18.081Z,100745.43
2022-10-28T00:21:22.887Z,100745.7
2022-10-28T00:22:20.344Z,100743.19
2022-10-28T00:23:20.760Z,100744.53
2022-10-28T00:24:21.174Z,100740.83
2022-10-28T00:25:21.492Z,100742.08
2022-10-28T00:26:25.283Z,100743.52
2022-10-28T00:27:22.718Z,100743.88
2022-10-28T00:28:23.142Z,100743.86
2022-10-28T00:29:23.863Z,100742.72
2022-10-28T00:30:24.015Z,100738.13
2022-10-28T00:31:26.024Z,100744.97
2022-10-28T00:32:25.123Z,100741.23
2022-10-28T00:33:25.317Z,100741.56
2022-10-28T00:34:25.947Z,100740.49
2022-10-28T00:35:26.159Z,100736.27
2022-10-28T00:36:32.096Z,100733.2
2022-10-28T00:37:29.442Z,100735
2022-10-28T00:38:31.094Z,100734.09
2022-10-28T00:39:30.788Z,100734.38
2022-10-28T00:40:34.895Z,100732.73
2022-10-28T00:41:35.383Z,100733.3
2022-10-28T00:42:33.057Z,100731.2
2022-10-28T00:43:37.774Z,100729.91
2022-10-28T00:45:37.384Z,100730.24
2022-10-28T00:46:44.871Z,100728.14
2022-10-28T00:48:47.749Z,100728.59
2022-10-28T00:49:48.469Z,100729.16
2022-10-28T00:50:48.893Z,100730.8
2022-10-28T00:51:49.410Z,100725.9
2022-10-28T00:52:50.762Z,100724.97
2022-10-28T00:53:50.651Z,100727.8
2022-10-28T00:54:50.321Z,100728.68
2022-10-28T00:55:49.845Z,100728.34
2022-10-28T00:56:53.543Z,100731.06
2022-10-28T00:57:53.369Z,100723.94
2022-10-28T00:59:54.281Z,100721.57
2022-10-28T01:00:54.685Z,100723.58
2022-10-28T01:01:55.276Z,100721.73
2022-10-28T01:02:56.555Z,100720.3
2022-10-28T01:03:56.652Z,100720.62
2022-10-28T01:04:55.739Z,100719.34
2022-10-28T01:05:57.692Z,100721.21
2022-10-28T01:06:58.823Z,100723.46
2022-10-28T01:09:00.314Z,100723.12
2022-10-28T01:10:00.281Z,100722.28
2022-10-28T01:44:41.463Z,100714.45
2022-10-28T01:53:57.092Z,100706.47
2022-10-28T01:55:59.450Z,100703.73
2022-10-28T01:56:59.879Z,100700.82
2022-10-28T01:58:00.871Z,100701.8
2022-10-28T01:59:00.928Z,100705.02
2022-10-28T02:00:00.713Z,100699.53
2022-10-28T02:01:01.178Z,100703.03
2022-10-28T02:01:59.761Z,100703.46
2022-10-28T02:03:00.215Z,100705.27
2022-10-28T02:04:00.525Z,100699.38
2022-10-28T02:07:02.598Z,100699.75
2022-10-28T02:12:25.880Z,100694.5
2022-10-28T02:13:21.790Z,100692.26
2022-10-28T02:22:54.611Z,100687.95
2022-10-28T02:23:50.631Z,100686.62
2022-10-28T02:25:58.934Z,100684.4
2022-10-28T02:28:05.146Z,100691.01
2022-10-28T02:31:06.241Z,100688.4
2022-10-28T02:32:09.113Z,100683.95
2022-10-28T02:33:11.683Z,100682.89
2022-10-28T02:35:18.032Z,100680.66
2022-10-28T02:36:18.450Z,100681.15
2022-10-28T02:39:26.872Z,100679.12
2022-10-28T02:40:28.819Z,100678.14
2022-10-28T02:46:42.079Z,100678.05
2022-10-28T02:55:04.338Z,100678.43
2022-10-28T02:56:04.461Z,100680.43
2022-10-28T02:57:10.812Z,100680.17
2022-10-28T02:58:03.849Z,100677.62
2022-10-28T02:59:04.172Z,100674.91
2022-10-28T03:00:09.495Z,100677.39
2022-10-28T03:01:07.715Z,100676.16
2022-10-28T03:02:08.746Z,100677.09
2022-10-28T03:03:07.975Z,100674.44
2022-10-28T03:04:08.414Z,100669.26
2022-10-28T03:05:09.432Z,100672.55
2022-10-28T03:06:09.328Z,100677.67
2022-10-28T03:07:09.541Z,100673.16
2022-10-28T03:08:10.173Z,100673.12
2022-10-28T03:09:10.379Z,100676.59
2022-10-28T03:10:11.205Z,100673.39
2022-10-28T03:11:11.311Z,100676.52
2022-10-28T03:12:11.632Z,100676.94
2022-10-28T03:13:12.153Z,100676.48
2022-10-28T03:14:14.705Z,100678.38
2022-10-28T03:15:13.281Z,100678.77
2022-10-28T03:16:13.392Z,100681.02
2022-10-28T03:17:14.123Z,100680.48
2022-10-28T03:18:14.325Z,100679.06
2022-10-28T03:19:14.740Z,100677.13
2022-10-28T03:20:15.471Z,100678.73
2022-10-28T03:21:16.191Z,100676.16
2022-10-28T03:22:16.905Z,100680.41
2022-10-28T03:23:17.121Z,100675.81
2022-10-28T03:24:17.543Z,100677.99
2022-10-28T03:25:17.941Z,100679.87
2022-10-28T03:26:18.388Z,100678.29
2022-10-28T03:27:18.893Z,100673.77
2022-10-28T03:28:19.209Z,100680.3
2022-10-28T03:29:19.731Z,100675.55
2022-10-28T03:30:20.250Z,100674.37
2022-10-28T03:31:20.979Z,100675.39
2022-10-28T03:33:21.294Z,100673.64
2022-10-28T03:34:21.809Z,100675.27
2022-10-28T03:35:22.122Z,100672.59
2022-10-28T03:36:22.860Z,100678.34
2022-10-28T03:37:23.063Z,100680.03
2022-10-28T03:38:23.573Z,100670.53
2022-10-28T03:39:23.890Z,100677.86
2022-10-28T03:40:24.417Z,100672.78
2022-10-28T03:41:24.843Z,100670.19
2022-10-28T03:42:25.338Z,100670.31
2022-10-28T03:43:25.648Z,100670.48
2022-10-28T03:44:26.167Z,100665.42
2022-10-28T03:45:26.471Z,100671.88
2022-10-28T03:46:27.668Z,100666.41
2022-10-28T03:47:27.334Z,100659.35
2022-10-28T03:48:27.841Z,100660.7
2022-10-28T03:49:28.061Z,100659.78
2022-10-28T03:50:28.667Z,100661.95
2022-10-28T03:51:28.981Z,100660.65
2022-10-28T03:52:29.604Z,100656.95
2022-10-28T03:53:31.472Z,100659.16
2022-10-28T03:54:30.226Z,100658.81
2022-10-28T03:55:30.652Z,100654.42
2022-10-28T03:56:31.167Z,100653.04
2022-10-28T03:57:32.276Z,100655.17
2022-10-28T03:58:33.516Z,100651.32
2022-10-28T03:59:32.524Z,100648.38
2022-10-28T04:00:33.041Z,100646.3
2022-10-28T04:01:33.718Z,100643.56
2022-10-28T04:02:34.146Z,100645.9
2022-10-28T04:03:34.490Z,100646.53
2022-10-28T04:04:34.704Z,100641.73
2022-10-28T04:05:35.209Z,100642.56
2022-10-28T04:06:35.644Z,100645.73
2022-10-28T04:07:36.154Z,100645.62
2022-10-28T04:08:37.179Z,100645.81
2022-10-28T04:09:36.784Z,100643.1
2022-10-28T04:10:37.401Z,100642.42
2022-10-28T04:11:37.825Z,100636.94
2022-10-28T04:12:38.433Z,100639
2022-10-28T04:13:38.652Z,100637.55
2022-10-28T04:14:39.173Z,100633.94
2022-10-28T04:15:39.479Z,100630.44
2022-10-28T04:16:39.804Z,100631.2
2022-10-28T04:17:40.321Z,100633.27
2022-10-28T04:18:40.742Z,100631.99
2022-10-28T04:19:41.254Z,100632.21
2022-10-28T04:20:41.465Z,100631.02
2022-10-28T04:21:42.092Z,100629.91
2022-10-28T04:22:42.611Z,100628.45
2022-10-28T04:23:42.921Z,100625.62
2022-10-28T04:24:43.331Z,100620.84
2022-10-28T04:25:44.061Z,100617.66
2022-10-28T04:26:44.172Z,100615.12
2022-10-28T04:27:44.989Z,100613.15
2022-10-28T04:28:44.899Z,100616.26
2022-10-28T04:29:45.411Z,100617.95
2022-10-28T04:30:47.473Z,100617.59
2022-10-28T04:31:48.693Z,100617.96
2022-10-28T04:32:49.122Z,100618.24
2022-10-28T04:33:49.302Z,100614.8
2022-10-28T04:34:49.842Z,100612.22
2022-10-28T04:35:50.069Z,100612.03
2022-10-28T04:36:50.582Z,100613.5
2022-10-28T04:37:51.358Z,100610.66
2022-10-28T04:38:51.523Z,100612.89
2022-10-28T04:39:52.034Z,100608.72
2022-10-28T04:40:52.451Z,100610.38
2022-10-28T04:41:52.860Z,100608.58
2022-10-28T04:42:53.581Z,100611.01
2022-10-28T04:43:53.701Z,100615.12
2022-10-28T04:44:54.114Z,100614.44
2022-10-28T04:45:54.625Z,100618.81
2022-10-28T04:46:56.382Z,100616.44
2022-10-28T04:48:01.624Z,100620.34
2022-10-28T04:48:59.153Z,100616.34
2022-10-28T04:49:59.672Z,100608.75
2022-10-28T04:51:00.193Z,100608.63
2022-10-28T04:52:01.102Z,100609.04
2022-10-28T04:53:01.432Z,100609.86
2022-10-28T04:54:02.373Z,100607.17
2022-10-28T04:55:02.261Z,100605.64
2022-10-28T04:56:02.891Z,100601.05
2022-10-28T04:57:03.505Z,100604.09
2022-10-28T04:58:03.707Z,100602.23
2022-10-28T04:59:05.072Z,100601.25
2022-10-28T05:00:05.894Z,100601.79
2022-10-28T05:01:09.232Z,100600.66
2022-10-28T05:02:07.181Z,100602.19
2022-10-28T05:03:07.547Z,100607.82
2022-10-28T05:04:08.175Z,100610.48
2022-10-28T05:05:09.158Z,100605.72
2022-10-28T05:06:08.793Z,100603.44
2022-10-28T05:07:09.020Z,100610.12
2022-10-28T05:08:09.522Z,100607.39
2022-10-28T05:09:09.952Z,100606.42
2022-10-28T05:10:10.958Z,100604.29
2022-10-28T05:11:10.975Z,100600.36
2022-10-28T05:12:11.179Z,100594.58
2022-10-28T05:13:11.703Z,100598.49
2022-10-28T05:14:12.330Z,100600.45
2022-10-28T05:15:13.744Z,100600.82
2022-10-28T05:16:12.958Z,100602.39
2022-10-28T05:17:13.374Z,100598.22
2022-10-28T05:18:13.791Z,100602.7
2022-10-28T05:19:14.098Z,100601.88
2022-10-28T05:20:17.475Z,100603.5
2022-10-28T05:21:15.541Z,100604.22
2022-10-28T05:22:15.456Z,100606.81
2022-10-28T05:23:15.964Z,100604.62
2022-10-28T05:24:16.256Z,100599.02
2022-10-28T05:25:17.186Z,100597.75
2022-10-28T05:26:17.422Z,100599.22
2022-10-28T05:27:17.746Z,100595.91
2022-10-28T05:28:19.094Z,100596.75
2022-10-28T05:29:19.079Z,100602.79
2022-10-28T05:30:19.912Z,100600.19
2022-10-28T05:31:19.920Z,100603.17
2022-10-28T05:32:20.326Z,100606.58
2022-10-28T05:33:20.742Z,100602.27
2022-10-28T05:34:21.361Z,100606.25
2022-10-28T05:35:21.786Z,100603.59
2022-10-28T05:36:22.510Z,100605.3
2022-10-28T05:37:22.399Z,100604.45
2022-10-28T05:38:22.925Z,100606.28
2022-10-28T05:39:23.219Z,100606.03
2022-10-28T05:40:23.736Z,100602.89
2022-10-28T05:41:24.192Z,100610.66
2022-10-28T05:42:24.553Z,100613.79
2022-10-28T05:43:25.310Z,100607.76
2022-10-28T05:44:25.532Z,100610.89
2022-10-28T05:45:26.156Z,100613.26
2022-10-28T05:46:26.249Z,100616.32
2022-10-28T05:47:26.781Z,100616.42
2022-10-28T05:48:27.190Z,100616.17
2022-10-28T05:49:27.501Z,100617.03
2022-10-28T05:50:28.639Z,100617.03
2022-10-28T05:51:28.543Z,100617.97
2022-10-28T05:52:28.834Z,100622.05
2022-10-28T05:53:29.577Z,100622.08
2022-10-28T05:54:30.007Z,100621.25
2022-10-28T05:55:30.204Z,100627.12
2022-10-28T05:56:30.724Z,100622.23
2022-10-28T05:57:34.420Z,100621.99
2022-10-28T05:58:31.975Z,100615.52
2022-10-28T05:59:32.285Z,100620.06
2022-10-28T06:00:32.871Z,100621.27
2022-10-28T06:01:33.275Z,100624.64
2022-10-28T06:02:33.630Z,100623.08
2022-10-28T06:03:34.086Z,100630.33
2022-10-28T06:04:34.357Z,100633.17
2022-10-28T06:05:36.110Z,100628.98
2022-10-28T06:06:35.186Z,100633.47
2022-10-28T06:07:35.814Z,100629.33
2022-10-28T06:08:36.124Z,100632.84
2022-10-28T06:09:36.645Z,100634.56
2022-10-28T06:10:36.863Z,100631.4
2022-10-28T06:11:36.115Z,100633.09
2022-10-28T06:12:36.574Z,100633.67
2022-10-28T06:13:36.981Z,100632.61
2022-10-28T06:14:37.197Z,100632.55
2022-10-28T06:15:37.607Z,100629.77
2022-10-28T06:16:38.037Z,100626.91
2022-10-28T06:17:38.447Z,100627.97
2022-10-28T06:18:38.957Z,100624.29
2022-10-28T06:19:39.383Z,100625.71
2022-10-28T06:20:39.805Z,100624.2
2022-10-28T06:21:40.199Z,100621
2022-10-28T06:23:45.147Z,100617.2
2022-10-28T06:24:43.696Z,100620.2
2022-10-28T06:25:44.210Z,100621.39
2022-10-28T06:26:44.550Z,100620.79
2022-10-28T06:27:45.077Z,100621.48
2022-10-28T06:28:46.824Z,100618.82
2022-10-28T06:29:46.010Z,100618.69
2022-10-28T06:30:46.428Z,100615
2022-10-28T06:31:46.749Z,100616.7
2022-10-28T06:32:47.176Z,100618.78
2022-10-28T06:33:47.572Z,100619.36
2022-10-28T06:34:48.196Z,100621.33
2022-10-28T06:35:48.512Z,100620.72
2022-10-28T06:36:49.230Z,100621.77
2022-10-28T06:37:55.858Z,100619.45
2022-10-28T06:38:53.253Z,100618.05
2022-10-28T06:39:53.967Z,100616.73
2022-10-28T06:40:56.749Z,100615.44
2022-10-28T06:41:54.806Z,100613.94
2022-10-28T06:43:03.321Z,100614.23
2022-10-28T06:43:55.744Z,100613.98
2022-10-28T06:44:56.256Z,100617.48
2022-10-28T06:46:01.066Z,100613.92
2022-10-28T06:46:59.940Z,100615.2
2022-10-28T06:48:06.095Z,100614.46
2022-10-28T06:49:03.640Z,100616.66
2022-10-28T06:50:04.156Z,100615.71
2022-10-28T06:51:04.886Z,100612.75
2022-10-28T06:52:04.683Z,100615.44
2022-10-28T06:53:05.510Z,100618.45
2022-10-28T06:54:05.928Z,100615.06
2022-10-28T06:55:07.055Z,100618.55
2022-10-28T06:56:07.258Z,100615.95
2022-10-28T06:57:06.876Z,100618.33
2022-10-28T06:58:07.295Z,100620.83
2022-10-28T06:59:09.246Z,100617.7
2022-10-28T07:00:09.457Z,100620.38
2022-10-28T07:01:08.897Z,100622.12
2022-10-28T07:02:12.409Z,100620.42
2022-10-28T07:03:10.911Z,100619.49
2022-10-28T07:04:13.893Z,100620.91
2022-10-28T07:05:11.236Z,100618.92
2022-10-28T07:06:11.838Z,100614.94
2022-10-28T07:07:12.267Z,100621.5
2022-10-28T07:08:12.791Z,100617.17
2022-10-28T07:09:15.979Z,100616.69
2022-10-28T07:10:13.411Z,100618.02
2022-10-28T07:11:13.841Z,100620.81
2022-10-28T07:12:14.588Z,100619.98
2022-10-28T07:13:14.771Z,100627.16
2022-10-28T07:14:15.189Z,100625.91
2022-10-28T07:15:15.815Z,100625.09
2022-10-28T07:16:16.132Z,100621.89
2022-10-28T07:17:16.963Z,100630.3
2022-10-28T07:18:16.861Z,100627.14
2022-10-28T07:19:21.666Z,100624.77
2022-10-28T07:20:20.250Z,100630.73
2022-10-28T07:21:20.467Z,100631.5
2022-10-28T07:22:25.370Z,100630.27
2022-10-28T07:23:23.351Z,100621.2
2022-10-28T07:24:23.769Z,100633.67
2022-10-28T07:25:23.979Z,100628.92
2022-10-28T07:26:24.807Z,100631.02
2022-10-28T07:27:25.112Z,100625.56
2022-10-28T07:28:26.358Z,100627.95
2022-10-28T07:29:26.044Z,100625.88
2022-10-28T07:30:26.989Z,100624.97
2022-10-28T07:31:26.784Z,100627.69
2022-10-28T07:32:31.395Z,100627.66
2022-10-28T07:33:28.847Z,100627.42
2022-10-28T07:34:29.258Z,100629.78
2022-10-28T07:35:30.497Z,100629
2022-10-28T07:36:30.103Z,100636.15
2022-10-28T07:37:30.611Z,100633.72
2022-10-28T07:38:31.127Z,100637.8
2022-10-28T07:39:31.485Z,100637.03
2022-10-28T07:40:32.580Z,100637.89
2022-10-28T07:41:32.482Z,100640.91
2022-10-28T07:42:34.027Z,100639.32
2022-10-28T07:43:36.283Z,100637.45
2022-10-28T07:44:33.733Z,100638.23
2022-10-28T07:45:35.366Z,100637.91
2022-10-28T07:46:35.070Z,100641.89
2022-10-28T07:47:35.293Z,100642.28
2022-10-28T07:48:38.672Z,100642.28
2022-10-28T07:49:36.117Z,100638.33
2022-10-28T07:50:36.441Z,100638.05
2022-10-28T07:51:36.850Z,100641.69
2022-10-28T07:52:37.875Z,100641.72
2022-10-28T07:53:38.090Z,100639.67
2022-10-28T07:54:38.198Z,100645.4
2022-10-28T07:55:38.818Z,100644.76
2022-10-28T07:56:39.137Z,100650.95
2022-10-28T07:57:39.645Z,100645.73
2022-10-28T07:58:41.191Z,100649.31
2022-10-28T07:59:40.482Z,100649.17
2022-10-28T08:00:41.039Z,100650.67
2022-10-28T08:01:41.517Z,100654.86
2022-10-28T08:02:41.829Z,100653.86
2022-10-28T08:03:42.659Z,100654.17
2022-10-28T08:04:42.659Z,100651.41
2022-10-28T08:05:43.375Z,100651.34
2022-10-28T08:06:43.594Z,100653.32
2022-10-28T08:07:44.003Z,100652.95
2022-10-28T08:08:46.356Z,100650.11
2022-10-28T08:09:44.825Z,100649.81
2022-10-28T08:10:45.345Z,100654.14
2022-10-28T08:11:46.062Z,100650.79
2022-10-28T08:12:46.375Z,100650.41
2022-10-28T08:13:47.571Z,100648.98
2022-10-28T08:14:47.108Z,100648.92
2022-10-28T08:15:55.108Z,100653.73
2022-10-28T08:16:52.746Z,100647.14
2022-10-28T08:17:57.305Z,100649.02
2022-10-28T08:18:55.841Z,100651.82
2022-10-28T08:19:55.327Z,100650.83
2022-10-28T08:21:57.996Z,100652.57
2022-10-28T08:23:00.075Z,100654.45
2022-10-28T08:23:59.336Z,100651.58
2022-10-28T08:24:59.554Z,100647.55
2022-10-28T08:26:00.036Z,100651.86
2022-10-28T08:27:01.820Z,100648.12
2022-10-28T08:28:00.899Z,100646.46
2022-10-28T08:29:01.561Z,100646.64
2022-10-28T08:30:02.042Z,100649.14
2022-10-28T08:31:10.471Z,100649.45
2022-10-28T08:32:02.971Z,100648.33
2022-10-28T08:33:03.285Z,100644.16
2022-10-28T08:34:03.906Z,100649.2
2022-10-28T08:35:05.036Z,100649.01
2022-10-28T08:36:05.767Z,100649.33
2022-10-28T08:37:05.334Z,100646.49
2022-10-28T08:38:05.885Z,100650
2022-10-28T08:39:06.418Z,100651.21
2022-10-28T08:40:11.729Z,100648.58
2022-10-28T08:48:34.725Z,100653.53
2022-10-28T08:49:34.836Z,100653.19
2022-10-28T08:52:50.215Z,100647.91
2022-10-28T08:53:52.878Z,100646.41
2022-10-28T08:54:51.758Z,100647.68
2022-10-28T08:55:52.800Z,100646.04
2022-10-28T08:56:52.080Z,100646.26
2022-10-28T08:58:56.298Z,100648.57
2022-10-28T08:59:55.791Z,100649.3
2022-10-28T09:00:57.975Z,100648.27
2022-10-28T09:04:05.751Z,100647.49
2022-10-28T09:06:06.691Z,100651.41
2022-10-28T09:07:05.462Z,100646.23
2022-10-28T09:08:05.877Z,100646.14
2022-10-28T09:09:05.266Z,100647.88
2022-10-28T09:10:06.910Z,100642.56
2022-10-28T09:36:09.951Z,100633.81
2022-10-28T09:49:37.555Z,100631.19
2022-10-28T09:50:36.265Z,100626.69
2022-10-28T09:53:50.010Z,100624.48
2022-10-28T09:54:46.436Z,100623.96
2022-10-28T09:55:44.183Z,100623.33
2022-10-28T09:56:44.495Z,100620.09
2022-10-28T09:57:45.009Z,100618.2
2022-10-28T09:58:48.407Z,100617.07
2022-10-28T09:59:46.560Z,100616.88
2022-10-28T10:00:46.264Z,100615.91
2022-10-28T10:01:47.030Z,100615.03
2022-10-28T10:02:47.578Z,100613.41
2022-10-28T10:03:50.061Z,100614.91
2022-10-28T10:04:48.362Z,100613.53
2022-10-28T10:05:52.961Z,100613.34
2022-10-28T10:06:54.595Z,100609.64
2022-10-28T10:07:57.865Z,100611.28
2022-10-28T10:08:56.823Z,100607.14
2022-10-28T10:10:00.248Z,100606.86
2022-10-28T10:11:05.786Z,100611.09
2022-10-28T10:12:06.504Z,100602.74
2022-10-28T10:13:03.251Z,100599.94
2022-10-28T10:14:09.999Z,100599.38
2022-10-28T10:15:06.116Z,100599.23
2022-10-28T10:16:13.564Z,100597.64
2022-10-28T10:17:14.118Z,100594.27
2022-10-28T10:18:13.307Z,100590.66
2022-10-28T10:19:11.654Z,100591.16
2022-10-28T10:20:13.929Z,100595.39
2022-10-28T10:21:11.898Z,100590.52
2022-10-28T10:25:27.375Z,100586.72
2022-10-28T10:26:25.026Z,100588.8
2022-10-28T10:27:27.489Z,100585.19
2022-10-28T10:28:27.512Z,100585.67
2022-10-28T10:29:26.488Z,100584.47
2022-10-28T10:31:31.001Z,100576.05
2022-10-28T10:32:32.448Z,100578.51
2022-10-28T10:34:33.680Z,100575.33
2022-10-28T10:35:37.820Z,100578.6
2022-10-28T10:36:35.306Z,100580.91
2022-10-28T10:37:37.294Z,100578.44
2022-10-28T10:38:37.512Z,100579.84
2022-10-28T10:39:38.225Z,100576.08
2022-10-28T10:41:42.825Z,100576.78
2022-10-28T10:42:51.663Z,100568.72
2022-10-28T10:43:43.578Z,100567.41
2022-10-28T10:44:44.509Z,100568.85
2022-10-28T10:46:45.960Z,100572.81
2022-10-28T10:47:46.360Z,100571.03
2022-10-28T10:49:48.936Z,100569.45
2022-10-28T10:50:50.480Z,100568.75
2022-10-28T11:04:26.197Z,100558.69
2022-10-28T11:05:27.320Z,100555.07
2022-10-28T11:06:31.147Z,100556.97
2022-10-28T11:07:32.276Z,100555.39
2022-10-28T11:09:39.645Z,100554.64
2022-10-28T11:10:37.103Z,100554
2022-10-28T11:11:41.206Z,100554.53
2022-10-28T11:13:46.034Z,100553.38
2022-10-28T11:16:53.216Z,100552.39
2022-10-28T11:17:57.482Z,100546.23
2022-10-28T11:18:55.381Z,100549.77
2022-10-28T11:19:59.171Z,100546.18
2022-10-28T11:26:13.358Z,100541.91
2022-10-28T11:29:20.223Z,100542.42
2022-10-28T11:43:58.613Z,100539.77
2022-10-28T12:23:39.215Z,100517.59
2022-10-28T12:24:39.683Z,100515.83
2022-10-28T12:25:41.585Z,100518.14
2022-10-28T12:27:44.460Z,100511.58
2022-10-28T12:29:48.878Z,100514.59
2022-10-28T12:30:47.247Z,100511.16
2022-10-28T12:31:52.277Z,100509.37
2022-10-28T12:32:55.499Z,100509.02
2022-10-28T12:34:06.226Z,100508.03
2022-10-28T12:41:19.069Z,100508.86
2022-10-28T12:43:27.274Z,100502.69
2022-10-28T12:44:26.464Z,100503.86
2022-10-28T12:45:25.948Z,100500.97
2022-10-28T12:48:41.321Z,100500.66
2022-10-28T12:51:40.227Z,100506.52
2022-10-28T12:52:49.436Z,100502.66
2022-10-28T12:53:55.393Z,100498.38
2022-10-28T13:00:06.603Z,100495.45
2022-10-28T13:01:11.959Z,100495.42
2022-10-28T13:02:02.528Z,100497.92
2022-10-28T13:03:11.222Z,100492.58
2022-10-28T13:04:04.563Z,100497.32
2022-10-28T13:05:05.800Z,100492.28
2022-10-28T13:27:03.702Z,100487.55
2022-10-28T13:28:01.751Z,100486.82
2022-10-28T13:29:06.165Z,100491.32
2022-10-28T13:30:04.511Z,100489.23
2022-10-28T13:31:07.170Z,100488.05
2022-10-28T13:32:05.059Z,100485.31
2022-10-28T13:34:11.314Z,100483.77
2022-10-28T13:36:20.752Z,100482.81
2022-10-28T13:37:23.849Z,100480.74
2022-10-28T13:38:25.885Z,100483.25
2022-10-28T13:41:37.070Z,100482.98
2022-10-28T13:47:44.485Z,100478.47
2022-10-28T13:48:46.531Z,100478.16
2022-10-28T13:50:47.057Z,100478.29
2022-10-28T13:51:50.136Z,100477.36
2022-10-28T13:54:56.215Z,100473.12
2022-10-28T14:03:25.062Z,100463.98
2022-10-28T14:07:31.205Z,100465.77
2022-10-28T14:09:35.286Z,100464.56
2022-10-28T14:10:36.658Z,100462.37
2022-10-28T14:11:34.190Z,100462.03
2022-10-28T14:12:43.106Z,100461.71
2022-10-28T14:14:37.180Z,100462.81
2022-10-28T14:15:40.984Z,100458.56
2022-10-28T14:16:40.394Z,100460.89
2022-10-28T14:17:46.698Z,100461.14
2022-10-28T14:18:44.621Z,100460.09
2022-10-28T14:19:49.915Z,100461.02
2022-10-28T14:22:50.872Z,100459.22
2022-10-28T14:24:52.718Z,100455.28
2022-10-28T14:26:04.839Z,100454.5
2022-10-28T14:28:00.583Z,100454.22
2022-10-28T14:29:01.367Z,100457.53
2022-10-28T14:30:14.365Z,100460.67
2022-10-28T14:50:52.481Z,100448.87
2022-10-28T14:51:52.266Z,100450.7
2022-10-28T14:52:54.230Z,100453.2
2022-10-28T14:53:56.248Z,100449.02
2022-10-28T14:54:59.665Z,100445.31
2022-10-28T14:56:06.119Z,100450.73
2022-10-28T14:56:58.760Z,100454.19
2022-10-28T15:00:07.061Z,100448.19
2022-10-28T15:03:14.771Z,100449.94
2022-10-28T15:04:15.188Z,100452.62
2022-10-28T15:07:22.891Z,100442.55
2022-10-28T15:08:24.734Z,100440.17
2022-10-28T15:09:29.753Z,100439.97
2022-10-28T15:10:31.093Z,100442.97
2022-10-28T15:11:29.058Z,100439.23
2022-10-28T15:12:29.267Z,100437.06
2022-10-28T15:13:29.576Z,100439.53
2022-10-28T15:14:32.862Z,100442.57
2022-10-28T15:15:33.069Z,100438.66
2022-10-28T15:16:30.933Z,100437.64
2022-10-28T15:17:38.004Z,100432.42
2022-10-28T15:18:35.659Z,100433.25
2022-10-28T15:19:36.171Z,100429.83
2022-10-28T15:20:36.798Z,100429.44
2022-10-28T15:21:37.202Z,100426.7
2022-10-28T15:22:38.043Z,100427.06
2022-10-28T15:23:38.449Z,100424.11
2022-10-28T15:24:43.063Z,100423.86
2022-10-28T15:25:38.985Z,100424.77
2022-10-28T15:26:39.491Z,100422.02
2022-10-28T15:27:41.756Z,100419.3
2022-10-28T15:28:41.044Z,100421.97
2022-10-28T15:29:42.381Z,100421.62
2022-10-28T15:30:46.328Z,100422.41
2022-10-28T15:32:44.557Z,100420.08
2022-10-28T15:33:44.972Z,100420
2022-10-28T15:34:45.283Z,100422.22
2022-10-28T15:35:46.718Z,100424.36
2022-10-28T15:36:49.486Z,100422.07
2022-10-28T15:37:47.223Z,100420.09
2022-10-28T15:38:50.013Z,100413.5
2022-10-28T15:39:49.822Z,100414.85
2022-10-28T15:40:49.311Z,100411.23
2022-10-28T15:41:48.909Z,100412.95
2022-10-28T15:44:58.046Z,100412.8
2022-10-28T15:47:02.456Z,100405.11
2022-10-28T15:48:02.583Z,100406.17
2022-10-28T15:49:02.366Z,100405.92
2022-10-28T15:59:23.323Z,100417.03
2022-10-28T16:00:24.667Z,100411.02
2022-10-28T16:06:39.149Z,100414.81
2022-10-28T16:08:36.601Z,100415.65
2022-10-28T16:10:45.519Z,100417.55
2022-10-28T16:11:51.777Z,100416.98
2022-10-28T16:12:45.730Z,100418.13
2022-10-28T16:13:49.731Z,100418.61
2022-10-28T16:16:51.632Z,100420.6
2022-10-28T16:17:52.525Z,100418.86
2022-10-28T16:20:58.874Z,100418.71
2022-10-28T16:21:57.071Z,100419.45
2022-10-28T16:22:59.003Z,100417.17
2022-10-28T16:23:57.995Z,100416.23
2022-10-28T16:24:58.301Z,100416.14
2022-10-28T16:25:58.820Z,100416.73
2022-10-28T16:28:01.503Z,100417.07
2022-10-28T16:29:01.919Z,100413.19
2022-10-28T16:30:02.237Z,100418.76
2022-10-28T16:31:02.952Z,100419.69
2022-10-28T16:32:03.379Z,100418.05
2022-10-28T16:33:03.784Z,100418.45
2022-10-28T16:34:04.106Z,100420.27
2022-10-28T16:35:13.122Z,100419.05
2022-10-28T16:36:06.163Z,100417.05
2022-10-28T16:38:12.837Z,100410.47
2022-10-28T16:39:13.764Z,100415.98
2022-10-28T16:40:30.849Z,100416.18
2022-10-28T16:41:17.376Z,100414.7
2022-10-28T16:42:15.425Z,100418.98
2022-10-28T16:44:18.408Z,100414.38
2022-10-28T16:45:18.713Z,100411.23
2022-10-28T16:46:17.088Z,100411.27
2022-10-28T16:47:22.714Z,100412.25
2022-10-28T16:48:23.558Z,100407.75
2022-10-28T16:49:21.299Z,100408.94
2022-10-28T16:50:21.616Z,100403.61
2022-10-28T16:51:22.032Z,100405.06
2022-10-28T16:52:29.711Z,100406.2
2022-10-28T16:53:27.378Z,100407.8
2022-10-28T16:54:27.674Z,100403.38
2022-10-28T16:55:29.118Z,100403.02
2022-10-28T16:56:28.517Z,100401.85
2022-10-28T16:57:28.836Z,100403.02
2022-10-28T16:58:29.456Z,100400.69
2022-10-28T16:59:30.376Z,100401.92
2022-10-28T17:00:30.384Z,100397.95
2022-10-28T17:01:30.944Z,100394.49
2022-10-28T17:02:36.177Z,100393.47
2022-10-28T17:03:34.393Z,100389
2022-10-28T17:04:34.819Z,100389.56
2022-10-28T17:05:35.132Z,100387.19
2022-10-28T17:06:35.757Z,100385.69
2022-10-28T17:07:35.958Z,100387.64
2022-10-28T17:09:01.319Z,100390.34
2022-10-28T17:09:38.634Z,100387.7
2022-10-28T17:10:40.178Z,100390.2
2022-10-28T17:11:39.788Z,100390.2
2022-10-28T17:12:40.085Z,100387.31
2022-10-28T17:13:40.509Z,100388.89
2022-10-28T17:14:41.231Z,100389.05
2022-10-28T17:15:42.564Z,100386.08
2022-10-28T17:16:43.390Z,100386.51
2022-10-28T17:17:42.161Z,100383.89
2022-10-28T17:18:42.583Z,100386.94
2022-10-28T17:19:43.316Z,100385.34
2022-10-28T17:20:43.534Z,100388.08
2022-10-28T17:21:43.934Z,100382.41